sensor_id;sensor_type;location;lat;lon;timestamp;pressure;altitude;pressure_sealevel;temperature;humidity
58018;BME280;43810;50.860;19.226;2023-03-18T00:02:00;98835.88;;;1.46;67.07
58018;BME280;43810;50.860;19.226;2023-03-18T00:04:26;98835.06;;;1.35;67.11
58018;BME280;43810;50.860;19.226;2023-03-18T00:06:53;98826.16;;;1.31;67.31
58018;BME280;43810;50.860;19.226;2023-03-18T00:09:19;98827.75;;;1.32;67.50
58018;BME280;43810;50.860;19.226;2023-03-18T00:11:45;98835.84;;;1.25;67.77
58018;BME280;43810;50.860;19.226;2023-03-18T00:14:11;98819.63;;;1.28;67.67
58018;BME280;43810;50.860;19.226;2023-03-18T00:16:37;98826.69;;;1.33;67.55
58018;BME280;43810;50.860;19.226;2023-03-18T00:19:03;98820.66;;;1.27;67.92
58018;BME280;43810;50.860;19.226;2023-03-18T00:21:30;98827.47;;;1.33;67.56
58018;BME280;43810;50.860;19.226;2023-03-18T00:23:56;98829.56;;;1.31;67.58
58018;BME280;43810;50.860;19.226;2023-03-18T00:26:25;98829.31;;;1.28;67.44
58018;BME280;43810;50.860;19.226;2023-03-18T00:28:52;98816.47;;;1.16;68.49
58018;BME280;43810;50.860;19.226;2023-03-18T00:31:19;98816.47;;;1.16;68.25
58018;BME280;43810;50.860;19.226;2023-03-18T00:33:45;98810.72;;;1.19;68.16
58018;BME280;43810;50.860;19.226;2023-03-18T00:36:12;98805.22;;;1.26;68.22
58018;BME280;43810;50.860;19.226;2023-03-18T00:38:40;98807.59;;;1.22;68.48
58018;BME280;43810;50.860;19.226;2023-03-18T00:41:07;98798.94;;;1.17;68.20
58018;BME280;43810;50.860;19.226;2023-03-18T00:43:42;98811.50;;;1.15;68.57
58018;BME280;43810;50.860;19.226;2023-03-18T00:46:16;98803.66;;;1.10;68.55
58018;BME280;43810;50.860;19.226;2023-03-18T00:48:43;98796.31;;;1.07;68.54
58018;BME280;43810;50.860;19.226;2023-03-18T00:51:10;98791.88;;;1.07;68.55
58018;BME280;43810;50.860;19.226;2023-03-18T00:53:47;98792.91;;;1.01;68.37
58018;BME280;43810;50.860;19.226;2023-03-18T00:56:14;98791.34;;;0.95;68.54
58018;BME280;43810;50.860;19.226;2023-03-18T00:58:40;98787.66;;;0.91;68.79
58018;BME280;43810;50.860;19.226;2023-03-18T01:01:08;98785.06;;;0.86;68.70
58018;BME280;43810;50.860;19.226;2023-03-18T01:03:34;98790.03;;;0.87;68.76
58018;BME280;43810;50.860;19.226;2023-03-18T01:06:01;98785.53;;;0.78;69.27
58018;BME280;43810;50.860;19.226;2023-03-18T01:08:29;98772.47;;;0.78;69.33
58018;BME280;43810;50.860;19.226;2023-03-18T01:10:55;98770.13;;;0.81;69.54
58018;BME280;43810;50.860;19.226;2023-03-18T01:13:22;98767.78;;;0.85;69.69
58018;BME280;43810;50.860;19.226;2023-03-18T01:15:51;98765.16;;;0.80;69.46
58018;BME280;43810;50.860;19.226;2023-03-18T01:18:17;98764.13;;;0.86;69.67
58018;BME280;43810;50.860;19.226;2023-03-18T01:20:43;98759.91;;;0.80;69.31
58018;BME280;43810;50.860;19.226;2023-03-18T01:23:10;98769.59;;;0.79;69.67
58018;BME280;43810;50.860;19.226;2023-03-18T01:25:37;98760.19;;;0.78;69.58
58018;BME280;43810;50.860;19.226;2023-03-18T01:28:03;98756.25;;;0.71;69.62
58018;BME280;43810;50.860;19.226;2023-03-18T01:30:30;98755.97;;;0.62;70.19
58018;BME280;43810;50.860;19.226;2023-03-18T01:32:56;98756.75;;;0.57;70.34
58018;BME280;43810;50.860;19.226;2023-03-18T01:35:23;98757.53;;;0.58;70.38
58018;BME280;43810;50.860;19.226;2023-03-18T01:37:50;98750.75;;;0.52;70.77
58018;BME280;43810;50.860;19.226;2023-03-18T01:40:16;98751.53;;;0.57;70.81
58018;BME280;43810;50.860;19.226;2023-03-18T01:42:42;98747.88;;;0.63;70.74
58018;BME280;43810;50.860;19.226;2023-03-18T01:45:21;98744.22;;;0.70;70.88
58018;BME280;43810;50.860;19.226;2023-03-18T01:47:47;98741.59;;;0.70;70.59
58018;BME280;43810;50.860;19.226;2023-03-18T01:50:26;98741.88;;;0.68;71.17
58018;BME280;43810;50.860;19.226;2023-03-18T01:52:57;98732.22;;;0.74;70.78
58018;BME280;43810;50.860;19.226;2023-03-18T01:55:27;98742.41;;;0.75;70.79
58018;BME280;43810;50.860;19.226;2023-03-18T01:57:54;98736.91;;;0.61;71.39
58018;BME280;43810;50.860;19.226;2023-03-18T02:00:21;98735.34;;;0.71;71.05
58018;BME280;43810;50.860;19.226;2023-03-18T02:02:49;98749.97;;;0.67;70.89
58018;BME280;43810;50.860;19.226;2023-03-18T02:05:19;98752.31;;;0.58;71.10
58018;BME280;43810;50.860;19.226;2023-03-18T02:07:45;98752.06;;;0.59;71.27
58018;BME280;43810;50.860;19.226;2023-03-18T02:10:18;98740.56;;;0.60;71.22
58018;BME280;43810;50.860;19.226;2023-03-18T02:12:48;98746.81;;;0.59;71.37
58018;BME280;43810;50.860;19.226;2023-03-18T02:15:17;98752.56;;;0.51;71.34
58018;BME280;43810;50.860;19.226;2023-03-18T02:17:48;98745.75;;;0.55;71.50
58018;BME280;43810;50.860;19.226;2023-03-18T02:28:56;98752.00;;;0.44;72.04
58018;BME280;43810;50.860;19.226;2023-03-18T02:31:23;98740.75;;;0.44;72.08
58018;BME280;43810;50.860;19.226;2023-03-18T02:33:50;98745.50;;;0.47;72.28
58018;BME280;43810;50.860;19.226;2023-03-18T02:36:19;98741.84;;;0.48;72.00
58018;BME280;43810;50.860;19.226;2023-03-18T02:38:46;98749.66;;;0.48;72.13
58018;BME280;43810;50.860;19.226;2023-03-18T02:41:16;98733.72;;;0.39;72.23
58018;BME280;43810;50.860;19.226;2023-03-18T02:43:43;98742.56;;;0.33;72.65
58018;BME280;43810;50.860;19.226;2023-03-18T02:48:41;98737.88;;;0.30;72.54
58018;BME280;43810;50.860;19.226;2023-03-18T02:51:10;98736.56;;;0.27;72.40
58018;BME280;43810;50.860;19.226;2023-03-18T02:53:36;98740.25;;;0.37;72.41
58018;BME280;43810;50.860;19.226;2023-03-18T02:56:04;98740.22;;;0.32;71.98
58018;BME280;43810;50.860;19.226;2023-03-18T02:58:30;98736.78;;;0.21;72.69
58018;BME280;43810;50.860;19.226;2023-03-18T03:00:57;98737.81;;;0.15;72.97
58018;BME280;43810;50.860;19.226;2023-03-18T03:03:24;98738.84;;;0.14;73.08
58018;BME280;43810;50.860;19.226;2023-03-18T03:05:50;98741.97;;;0.11;73.07
58018;BME280;43810;50.860;19.226;2023-03-18T03:08:15;98740.41;;;0.05;72.97
58018;BME280;43810;50.860;19.226;2023-03-18T03:10:41;98742.97;;;-0.00;73.17
58018;BME280;43810;50.860;19.226;2023-03-18T03:13:07;98747.13;;;-0.10;73.55
58018;BME280;43810;50.860;19.226;2023-03-18T03:15:35;98750.22;;;-0.18;73.88
58018;BME280;43810;50.860;19.226;2023-03-18T03:18:02;98747.31;;;-0.21;74.12
58018;BME280;43810;50.860;19.226;2023-03-18T03:20:29;98752.00;;;-0.28;74.65
58018;BME280;43810;50.860;19.226;2023-03-18T03:22:58;98748.34;;;-0.27;74.55
58018;BME280;43810;50.860;19.226;2023-03-18T03:25:25;98753.88;;;-0.19;74.33
58018;BME280;43810;50.860;19.226;2023-03-18T03:27:52;98755.41;;;-0.23;nan
58018;BME280;43810;50.860;19.226;2023-03-18T03:30:20;98741.88;;;-0.15;73.76
58018;BME280;43810;50.860;19.226;2023-03-18T03:32:46;98739.78;;;-0.18;73.75
58018;BME280;43810;50.860;19.226;2023-03-18T03:35:14;98753.88;;;-0.14;73.79
58018;BME280;43810;50.860;19.226;2023-03-18T03:37:41;98745.78;;;-0.17;73.83
58018;BME280;43810;50.860;19.226;2023-03-18T03:40:10;98755.44;;;-0.18;73.79
58018;BME280;43810;50.860;19.226;2023-03-18T03:42:35;98753.84;;;-0.24;74.14
58018;BME280;43810;50.860;19.226;2023-03-18T03:45:04;98746.00;;;-0.29;73.90
58018;BME280;43810;50.860;19.226;2023-03-18T03:47:30;98744.38;;;-0.35;74.20
58018;BME280;43810;50.860;19.226;2023-03-18T03:49:56;98754.28;;;-0.37;74.76
58018;BME280;43810;50.860;19.226;2023-03-18T03:52:22;98750.56;;;-0.46;75.03
58018;BME280;43810;50.860;19.226;2023-03-18T03:54:49;98748.97;;;-0.52;75.51
58018;BME280;43810;50.860;19.226;2023-03-18T03:57:16;98753.63;;;-0.59;75.66
58018;BME280;43810;50.860;19.226;2023-03-18T03:59:42;98751.72;;;-0.69;76.12
58018;BME280;43810;50.860;19.226;2023-03-18T04:02:08;98752.75;;;-0.75;76.43
58018;BME280;43810;50.860;19.226;2023-03-18T04:04:34;98748.81;;;-0.72;76.46
58018;BME280;43810;50.860;19.226;2023-03-18T04:07:00;98749.63;;;-0.72;76.61
58018;BME280;43810;50.860;19.226;2023-03-18T04:09:26;98740.50;;;-0.74;76.60
58018;BME280;43810;50.860;19.226;2023-03-18T04:11:51;98731.59;;;-0.78;76.78
58018;BME280;43810;50.860;19.226;2023-03-18T04:14:18;98737.34;;;-0.76;76.76
58018;BME280;43810;50.860;19.226;2023-03-18T04:16:43;98745.59;;;-0.85;77.00
58018;BME280;43810;50.860;19.226;2023-03-18T04:19:10;98741.97;;;-0.84;77.12
58018;BME280;43810;50.860;19.226;2023-03-18T04:21:36;98748.75;;;-0.83;76.86
58018;BME280;43810;50.860;19.226;2023-03-18T04:24:02;98753.16;;;-0.88;77.18
58018;BME280;43810;50.860;19.226;2023-03-18T04:26:29;98752.31;;;-0.94;76.93
58018;BME280;43810;50.860;19.226;2023-03-18T04:28:58;98760.63;;;-1.02;77.48
58018;BME280;43810;50.860;19.226;2023-03-18T04:31:24;98759.00;;;-1.08;77.81
58018;BME280;43810;50.860;19.226;2023-03-18T04:33:50;98754.03;;;-1.09;78.03
58018;BME280;43810;50.860;19.226;2023-03-18T04:36:16;98762.34;;;-1.12;78.28
58018;BME280;43810;50.860;19.226;2023-03-18T04:38:42;98757.88;;;-1.17;78.46
58018;BME280;43810;50.860;19.226;2023-03-18T04:41:07;98750.03;;;-1.17;78.45
58018;BME280;43810;50.860;19.226;2023-03-18T04:43:34;98755.81;;;-1.15;78.26
58018;BME280;43810;50.860;19.226;2023-03-18T04:46:00;98756.28;;;-1.18;78.49
58018;BME280;43810;50.860;19.226;2023-03-18T04:48:26;98751.84;;;-1.23;78.55
58018;BME280;43810;50.860;19.226;2023-03-18T04:50:52;98754.63;;;-1.29;78.79
58018;BME280;43810;50.860;19.226;2023-03-18T04:53:19;98754.13;;;-1.26;78.62
58018;BME280;43810;50.860;19.226;2023-03-18T04:55:45;98747.34;;;-1.27;78.75
58018;BME280;43810;50.860;19.226;2023-03-18T04:58:11;98750.97;;;-1.28;78.63
58018;BME280;43810;50.860;19.226;2023-03-18T05:00:37;98752.78;;;-1.34;78.82
58018;BME280;43810;50.860;19.226;2023-03-18T05:03:03;98753.50;;;-1.38;79.49
58018;BME280;43810;50.860;19.226;2023-03-18T05:05:29;98756.88;;;-1.38;79.68
58018;BME280;43810;50.860;19.226;2023-03-18T05:07:55;98755.97;;;-1.27;79.55
58018;BME280;43810;50.860;19.226;2023-03-18T05:10:21;98764.09;;;-1.18;79.21
58018;BME280;43810;50.860;19.226;2023-03-18T05:12:47;98755.06;;;-1.10;79.11
58018;BME280;43810;50.860;19.226;2023-03-18T05:15:14;98758.72;;;-1.11;78.96
58018;BME280;43810;50.860;19.226;2023-03-18T05:17:40;98762.13;;;-1.06;78.88
58018;BME280;43810;50.860;19.226;2023-03-18T05:20:07;98756.50;;;-0.93;78.62
58018;BME280;43810;50.860;19.226;2023-03-18T05:22:33;98757.34;;;-0.87;78.48
58018;BME280;43810;50.860;19.226;2023-03-18T05:24:58;98757.13;;;-0.80;78.38
58018;BME280;43810;50.860;19.226;2023-03-18T05:27:25;98767.13;;;-0.67;77.91
58018;BME280;43810;50.860;19.226;2023-03-18T05:29:52;98762.03;;;-0.52;77.41
58018;BME280;43810;50.860;19.226;2023-03-18T05:32:18;98766.00;;;-0.44;77.28
58018;BME280;43810;50.860;19.226;2023-03-18T05:34:44;98763.94;;;-0.37;76.51
58018;BME280;43810;50.860;19.226;2023-03-18T05:37:12;98770.53;;;-0.25;76.82
58018;BME280;43810;50.860;19.226;2023-03-18T05:39:39;98767.72;;;-0.18;76.47
58018;BME280;43810;50.860;19.226;2023-03-18T05:42:05;98769.06;;;-0.11;76.30
58018;BME280;43810;50.860;19.226;2023-03-18T05:44:32;98774.34;;;0.10;75.91
58018;BME280;43810;50.860;19.226;2023-03-18T05:46:59;98774.94;;;0.22;75.64
58018;BME280;43810;50.860;19.226;2023-03-18T05:49:26;98766.13;;;0.48;75.24
58018;BME280;43810;50.860;19.226;2023-03-18T05:51:52;98774.03;;;0.69;73.66
58018;BME280;43810;50.860;19.226;2023-03-18T05:54:18;98767.75;;;0.80;73.38
58018;BME280;43810;50.860;19.226;2023-03-18T05:56:44;98772.25;;;0.94;72.84
58018;BME280;43810;50.860;19.226;2023-03-18T05:59:11;98769.09;;;1.13;72.32
58018;BME280;43810;50.860;19.226;2023-03-18T06:01:39;98762.28;;;1.27;72.13
58018;BME280;43810;50.860;19.226;2023-03-18T06:04:06;98764.91;;;1.42;71.17
58018;BME280;43810;50.860;19.226;2023-03-18T06:06:32;98768.31;;;1.53;70.87
58018;BME280;43810;50.860;19.226;2023-03-18T06:08:58;98766.72;;;1.67;71.24
58018;BME280;43810;50.860;19.226;2023-03-18T06:11:26;98771.94;;;1.77;70.16
58018;BME280;43810;50.860;19.226;2023-03-18T06:13:52;98767.97;;;1.90;69.50
58018;BME280;43810;50.860;19.226;2023-03-18T06:16:18;98774.47;;;2.02;69.19
58018;BME280;43810;50.860;19.226;2023-03-18T06:18:44;98771.25;;;2.21;68.26
58018;BME280;43810;50.860;19.226;2023-03-18T06:21:10;98778.81;;;2.37;68.26
58018;BME280;43810;50.860;19.226;2023-03-18T06:23:37;98781.09;;;2.49;68.49
58018;BME280;43810;50.860;19.226;2023-03-18T06:26:04;98784.91;;;2.72;67.11
58018;BME280;43810;50.860;19.226;2023-03-18T06:28:31;98784.53;;;2.89;66.01
58018;BME280;43810;50.860;19.226;2023-03-18T06:30:58;98779.28;;;2.89;66.26
58018;BME280;43810;50.860;19.226;2023-03-18T06:33:24;98788.72;;;2.95;65.79
58018;BME280;43810;50.860;19.226;2023-03-18T06:35:51;98791.22;;;3.10;66.00
58018;BME280;43810;50.860;19.226;2023-03-18T06:38:17;98795.75;;;3.33;65.21
58018;BME280;43810;50.860;19.226;2023-03-18T06:40:44;98806.13;;;3.48;65.00
58018;BME280;43810;50.860;19.226;2023-03-18T06:43:10;98797.16;;;3.54;64.86
58018;BME280;43810;50.860;19.226;2023-03-18T06:45:36;98797.66;;;3.57;63.65
58018;BME280;43810;50.860;19.226;2023-03-18T06:48:03;98801.41;;;3.50;64.03
58018;BME280;43810;50.860;19.226;2023-03-18T06:50:29;98791.03;;;3.64;63.69
58018;BME280;43810;50.860;19.226;2023-03-18T06:52:57;98793.19;;;3.86;62.77
58018;BME280;43810;50.860;19.226;2023-03-18T06:55:24;98802.16;;;4.09;62.67
58018;BME280;43810;50.860;19.226;2023-03-18T06:57:50;98799.16;;;4.39;61.73
58018;BME280;43810;50.860;19.226;2023-03-18T07:00:18;98800.13;;;4.67;61.59
58018;BME280;43810;50.860;19.226;2023-03-18T07:02:44;98812.91;;;4.92;59.68
58018;BME280;43810;50.860;19.226;2023-03-18T07:05:11;98811.97;;;5.21;59.84
58018;BME280;43810;50.860;19.226;2023-03-18T07:07:37;98811.31;;;5.29;59.71
58018;BME280;43810;50.860;19.226;2023-03-18T07:10:05;98821.22;;;5.18;58.63
58018;BME280;43810;50.860;19.226;2023-03-18T07:12:32;98826.41;;;5.42;59.11
58018;BME280;43810;50.860;19.226;2023-03-18T07:14:58;98819.72;;;5.50;58.86
58018;BME280;43810;50.860;19.226;2023-03-18T07:17:24;98813.78;;;5.58;58.84
58018;BME280;43810;50.860;19.226;2023-03-18T07:19:50;98815.97;;;5.51;58.45
58018;BME280;43810;50.860;19.226;2023-03-18T07:22:16;98822.88;;;5.79;58.22
58018;BME280;43810;50.860;19.226;2023-03-18T07:24:43;98821.25;;;5.97;58.36
58018;BME280;43810;50.860;19.226;2023-03-18T07:27:10;98819.31;;;6.30;56.66
58018;BME280;43810;50.860;19.226;2023-03-18T07:29:38;98819.97;;;6.63;56.19
58018;BME280;43810;50.860;19.226;2023-03-18T07:32:04;98825.06;;;6.59;54.90
58018;BME280;43810;50.860;19.226;2023-03-18T07:34:30;98818.47;;;6.98;56.01
58018;BME280;43810;50.860;19.226;2023-03-18T07:36:56;98817.13;;;7.23;52.78
58018;BME280;43810;50.860;19.226;2023-03-18T07:39:23;98812.53;;;7.37;53.64
58018;BME280;43810;50.860;19.226;2023-03-18T07:41:49;98812.28;;;7.47;53.56
58018;BME280;43810;50.860;19.226;2023-03-18T07:44:16;98812.97;;;7.83;52.69
58018;BME280;43810;50.860;19.226;2023-03-18T07:46:42;98799.41;;;8.16;50.31
58018;BME280;43810;50.860;19.226;2023-03-18T07:49:09;98808.38;;;8.46;48.98
58018;BME280;43810;50.860;19.226;2023-03-18T07:51:35;98814.22;;;8.91;48.03
58018;BME280;43810;50.860;19.226;2023-03-18T07:54:01;98804.09;;;9.27;45.86
58018;BME280;43810;50.860;19.226;2023-03-18T07:56:28;98806.84;;;9.57;44.34
58018;BME280;43810;50.860;19.226;2023-03-18T07:58:54;98802.13;;;9.80;43.90
58018;BME280;43810;50.860;19.226;2023-03-18T08:01:20;98793.09;;;10.19;40.99
58018;BME280;43810;50.860;19.226;2023-03-18T08:03:46;98803.22;;;10.46;41.49
58018;BME280;43810;50.860;19.226;2023-03-18T08:06:13;98797.03;;;10.42;39.39
58018;BME280;43810;50.860;19.226;2023-03-18T08:08:40;98800.88;;;10.53;40.80
58018;BME280;43810;50.860;19.226;2023-03-18T08:11:06;98801.47;;;10.79;39.85
58018;BME280;43810;50.860;19.226;2023-03-18T08:13:34;98800.25;;;10.77;39.98
58018;BME280;43810;50.860;19.226;2023-03-18T08:16:01;98800.25;;;10.98;40.70
58018;BME280;43810;50.860;19.226;2023-03-18T08:18:27;98798.94;;;11.04;39.72
58018;BME280;43810;50.860;19.226;2023-03-18T08:20:53;98803.75;;;11.10;39.87
58018;BME280;43810;50.860;19.226;2023-03-18T08:23:19;98800.38;;;11.22;39.46
58018;BME280;43810;50.860;19.226;2023-03-18T08:25:49;98796.50;;;11.52;38.64
58018;BME280;43810;50.860;19.226;2023-03-18T08:28:15;98798.50;;;11.56;38.45
58018;BME280;43810;50.860;19.226;2023-03-18T08:30:42;98796.66;;;11.68;39.20
58018;BME280;43810;50.860;19.226;2023-03-18T08:33:09;98800.25;;;11.84;37.85
58018;BME280;43810;50.860;19.226;2023-03-18T08:35:35;98802.56;;;11.86;37.80
58018;BME280;43810;50.860;19.226;2023-03-18T08:38:01;98799.38;;;12.05;36.50
58018;BME280;43810;50.860;19.226;2023-03-18T08:40:28;98796.94;;;12.24;35.86
58018;BME280;43810;50.860;19.226;2023-03-18T08:42:54;98789.59;;;12.09;38.24
58018;BME280;43810;50.860;19.226;2023-03-18T08:45:20;98793.16;;;12.13;36.47
58018;BME280;43810;50.860;19.226;2023-03-18T08:47:47;98796.94;;;12.36;37.04
58018;BME280;43810;50.860;19.226;2023-03-18T08:50:13;98804.47;;;12.22;37.49
58018;BME280;43810;50.860;19.226;2023-03-18T08:52:39;98798.13;;;12.63;36.67
58018;BME280;43810;50.860;19.226;2023-03-18T08:55:06;98798.56;;;12.77;36.26
58018;BME280;43810;50.860;19.226;2023-03-18T08:57:33;98796.00;;;12.81;35.72
58018;BME280;43810;50.860;19.226;2023-03-18T08:59:59;98792.50;;;12.77;35.79
58018;BME280;43810;50.860;19.226;2023-03-18T09:02:25;98788.47;;;12.83;34.96
58018;BME280;43810;50.860;19.226;2023-03-18T09:04:53;98791.34;;;12.66;36.18
58018;BME280;43810;50.860;19.226;2023-03-18T09:07:20;98780.94;;;13.01;36.98
58018;BME280;43810;50.860;19.226;2023-03-18T09:09:46;98783.16;;;13.11;34.64
58018;BME280;43810;50.860;19.226;2023-03-18T09:12:11;98770.88;;;13.22;34.50
58018;BME280;43810;50.860;19.226;2023-03-18T09:14:42;98773.84;;;13.48;34.37
58018;BME280;43810;50.860;19.226;2023-03-18T09:17:08;98775.78;;;13.63;32.48
58018;BME280;43810;50.860;19.226;2023-03-18T09:19:34;98764.22;;;13.59;33.17
58018;BME280;43810;50.860;19.226;2023-03-18T09:22:00;98773.00;;;13.60;33.64
58018;BME280;43810;50.860;19.226;2023-03-18T09:24:26;98779.31;;;13.83;33.40
58018;BME280;43810;50.860;19.226;2023-03-18T09:26:52;98772.34;;;14.10;32.45
58018;BME280;43810;50.860;19.226;2023-03-18T09:29:18;98771.13;;;14.39;31.54
58018;BME280;43810;50.860;19.226;2023-03-18T09:31:44;98763.19;;;14.43;31.09
58018;BME280;43810;50.860;19.226;2023-03-18T09:34:11;98766.94;;;14.57;31.91
58018;BME280;43810;50.860;19.226;2023-03-18T09:36:38;98772.00;;;14.62;31.66
58018;BME280;43810;50.860;19.226;2023-03-18T09:39:05;98754.72;;;14.75;33.00
58018;BME280;43810;50.860;19.226;2023-03-18T09:44:31;98760.34;;;15.09;29.70
58018;BME280;43810;50.860;19.226;2023-03-18T09:55:56;98748.09;;;15.08;28.01
58018;BME280;43810;50.860;19.226;2023-03-18T10:01:01;98747.75;;;15.09;28.53
58018;BME280;43810;50.860;19.226;2023-03-18T10:04:10;98746.50;;;15.42;28.42
58018;BME280;43810;50.860;19.226;2023-03-18T10:06:43;98750.84;;;15.96;26.60
58018;BME280;43810;50.860;19.226;2023-03-18T10:11:49;98755.59;;;16.06;28.46
58018;BME280;43810;50.860;19.226;2023-03-18T10:14:20;98750.81;;;16.18;27.33
58018;BME280;43810;50.860;19.226;2023-03-18T10:19:17;98754.50;;;16.37;27.59
58018;BME280;43810;50.860;19.226;2023-03-18T10:24:49;98738.47;;;16.67;26.60
58018;BME280;43810;50.860;19.226;2023-03-18T10:27:59;98744.28;;;17.06;23.94
58018;BME280;43810;50.860;19.226;2023-03-18T10:33:26;98734.31;;;16.73;24.88
58018;BME280;43810;50.860;19.226;2023-03-18T10:36:18;98730.38;;;16.63;25.29
58018;BME280;43810;50.860;19.226;2023-03-18T10:38:52;98738.53;;;16.44;27.19
58018;BME280;43810;50.860;19.226;2023-03-18T10:41:28;98734.09;;;16.55;25.30
58018;BME280;43810;50.860;19.226;2023-03-18T10:43:56;98743.56;;;16.75;25.79
58018;BME280;43810;50.860;19.226;2023-03-18T10:46:23;98748.88;;;16.72;23.83
58018;BME280;43810;50.860;19.226;2023-03-18T10:48:54;98735.94;;;16.51;24.17
58018;BME280;43810;50.860;19.226;2023-03-18T10:56:34;98736.94;;;16.66;23.70
58018;BME280;43810;50.860;19.226;2023-03-18T10:59:00;98725.72;;;16.90;25.62
58018;BME280;43810;50.860;19.226;2023-03-18T11:01:27;98729.69;;;16.70;25.77
58018;BME280;43810;50.860;19.226;2023-03-18T11:04:02;98728.19;;;16.72;24.32
58018;BME280;43810;50.860;19.226;2023-03-18T11:06:49;98716.53;;;16.35;25.74
58018;BME280;43810;50.860;19.226;2023-03-18T11:09:19;98723.09;;;16.37;25.29
58018;BME280;43810;50.860;19.226;2023-03-18T11:11:49;98713.97;;;16.68;26.36
58018;BME280;43810;50.860;19.226;2023-03-18T11:14:22;98713.50;;;16.63;24.28
58018;BME280;43810;50.860;19.226;2023-03-18T11:17:02;98719.56;;;16.56;24.63
58018;BME280;43810;50.860;19.226;2023-03-18T11:24:29;98700.34;;;16.84;23.53
58018;BME280;43810;50.860;19.226;2023-03-18T11:27:25;98699.94;;;16.82;24.41
58018;BME280;43810;50.860;19.226;2023-03-18T11:29:59;98700.94;;;16.40;25.12
58018;BME280;43810;50.860;19.226;2023-03-18T11:32:32;98700.72;;;16.52;24.15
58018;BME280;43810;50.860;19.226;2023-03-18T11:35:04;98704.03;;;16.72;24.67
58018;BME280;43810;50.860;19.226;2023-03-18T11:37:36;98694.41;;;16.68;24.54
58018;BME280;43810;50.860;19.226;2023-03-18T11:40:24;98689.91;;;16.75;25.15
58018;BME280;43810;50.860;19.226;2023-03-18T11:42:57;98695.78;;;16.54;24.45
58018;BME280;43810;50.860;19.226;2023-03-18T11:47:56;98692.91;;;16.70;25.86
58018;BME280;43810;50.860;19.226;2023-03-18T11:50:26;98694.72;;;16.63;26.08
58018;BME280;43810;50.860;19.226;2023-03-18T11:56:07;98679.47;;;16.70;25.34
58018;BME280;43810;50.860;19.226;2023-03-18T12:15:48;98676.03;;;16.13;24.71
58018;BME280;43810;50.860;19.226;2023-03-18T12:27:40;98675.53;;;16.94;23.69
58018;BME280;43810;50.860;19.226;2023-03-18T12:30:34;98674.84;;;17.01;23.21
58018;BME280;43810;50.860;19.226;2023-03-18T12:35:43;98676.66;;;16.56;24.75
58018;BME280;43810;50.860;19.226;2023-03-18T12:41:30;98665.44;;;16.80;24.58
58018;BME280;43810;50.860;19.226;2023-03-18T12:46:48;98672.06;;;16.56;25.75
58018;BME280;43810;50.860;19.226;2023-03-18T12:49:27;98666.28;;;16.88;25.16
58018;BME280;43810;50.860;19.226;2023-03-18T12:52:01;98664.53;;;17.03;25.71
58018;BME280;43810;50.860;19.226;2023-03-18T12:54:48;98663.97;;;16.86;23.82
58018;BME280;43810;50.860;19.226;2023-03-18T12:57:25;98666.13;;;16.74;24.13
58018;BME280;43810;50.860;19.226;2023-03-18T13:00:02;98663.72;;;16.65;23.98
58018;BME280;43810;50.860;19.226;2023-03-18T13:05:05;98652.97;;;16.35;25.84
58018;BME280;43810;50.860;19.226;2023-03-18T13:10:33;98650.75;;;17.48;24.55
58018;BME280;43810;50.860;19.226;2023-03-18T13:13:05;98658.53;;;18.15;23.54
58018;BME280;43810;50.860;19.226;2023-03-18T13:15:38;98657.97;;;18.61;23.52
58018;BME280;43810;50.860;19.226;2023-03-18T13:18:14;98648.13;;;19.18;24.31
58018;BME280;43810;50.860;19.226;2023-03-18T13:20:42;98653.13;;;19.09;23.52
58018;BME280;43810;50.860;19.226;2023-03-18T13:23:16;98651.63;;;19.22;22.90
58018;BME280;43810;50.860;19.226;2023-03-18T13:31:19;98646.44;;;18.60;22.85
58018;BME280;43810;50.860;19.226;2023-03-18T13:44:21;98644.91;;;17.83;23.85
58018;BME280;43810;50.860;19.226;2023-03-18T13:47:10;98641.47;;;18.66;24.58
58018;BME280;43810;50.860;19.226;2023-03-18T13:49:40;98641.63;;;19.40;23.50
58018;BME280;43810;50.860;19.226;2023-03-18T13:52:22;98636.63;;;19.71;22.33
58018;BME280;43810;50.860;19.226;2023-03-18T13:54:49;98637.31;;;19.00;23.48
58018;BME280;43810;50.860;19.226;2023-03-18T14:02:45;98623.09;;;19.99;22.28
58018;BME280;43810;50.860;19.226;2023-03-18T14:07:56;98622.09;;;20.66;21.24
58018;BME280;43810;50.860;19.226;2023-03-18T14:10:22;98614.19;;;21.00;21.36
58018;BME280;43810;50.860;19.226;2023-03-18T14:12:49;98619.97;;;21.54;19.87
58018;BME280;43810;50.860;19.226;2023-03-18T14:15:35;98615.00;;;21.90;18.64
58018;BME280;43810;50.860;19.226;2023-03-18T14:18:02;98612.03;;;20.74;19.67
58018;BME280;43810;50.860;19.226;2023-03-18T14:20:39;98613.34;;;20.34;20.60
58018;BME280;43810;50.860;19.226;2023-03-18T14:23:27;98620.84;;;19.59;21.08
58018;BME280;43810;50.860;19.226;2023-03-18T14:26:16;98615.81;;;19.11;21.75
58018;BME280;43810;50.860;19.226;2023-03-18T14:28:52;98610.59;;;18.35;23.35
58018;BME280;43810;50.860;19.226;2023-03-18T14:31:29;98620.25;;;17.74;24.07
58018;BME280;43810;50.860;19.226;2023-03-18T14:39:13;98612.06;;;16.72;25.19
58018;BME280;43810;50.860;19.226;2023-03-18T14:41:43;98614.44;;;16.47;26.04
58018;BME280;43810;50.860;19.226;2023-03-18T14:46:45;98603.69;;;16.43;25.53
58018;BME280;43810;50.860;19.226;2023-03-18T14:52:30;98604.25;;;16.60;25.28
58018;BME280;43810;50.860;19.226;2023-03-18T14:55:04;98599.97;;;16.88;25.43
58018;BME280;43810;50.860;19.226;2023-03-18T14:57:32;98607.34;;;16.99;26.17
58018;BME280;43810;50.860;19.226;2023-03-18T14:59:59;98598.53;;;16.98;25.89
58018;BME280;43810;50.860;19.226;2023-03-18T15:02:31;98601.06;;;16.80;25.79
58018;BME280;43810;50.860;19.226;2023-03-18T15:04:59;98602.56;;;16.81;26.08
58018;BME280;43810;50.860;19.226;2023-03-18T15:07:34;98604.25;;;16.60;26.10
58018;BME280;43810;50.860;19.226;2023-03-18T15:10:13;98597.09;;;16.37;27.07
58018;BME280;43810;50.860;19.226;2023-03-18T15:12:42;98604.53;;;16.51;26.96